createdAt,value
2018-05-02T00:00:45.739Z,81.00
2018-05-02T00:03:11.696Z,81.10
2018-05-02T00:05:37.658Z,81.60
2018-05-02T00:08:03.645Z,82.40
2018-05-02T00:10:30.025Z,82.40
2018-05-02T00:12:56.735Z,81.60
2018-05-02T00:15:22.773Z,81.60
2018-05-02T00:17:48.730Z,81.80
2018-05-02T00:20:14.707Z,81.50
2018-05-02T00:22:40.716Z,81.80
2018-05-02T00:25:07.410Z,82.10
2018-05-02T00:27:33.361Z,82.00
2018-05-02T00:29:59.345Z,82.70
2018-05-02T00:32:26.052Z,82.50
2018-05-02T00:34:52.069Z,82.50
2018-05-02T00:37:18.023Z,82.90
2018-05-02T00:39:43.995Z,82.90
2018-05-02T00:42:10.699Z,83.20
2018-05-02T00:44:36.657Z,83.20
2018-05-02T00:47:02.632Z,83.30
2018-05-02T00:49:29.343Z,84.10
2018-05-02T00:51:55.386Z,84.00
2018-05-02T00:54:21.373Z,84.80
2018-05-02T00:56:47.338Z,85.20
2018-05-02T00:59:13.311Z,85.40
2018-05-02T01:01:40.001Z,85.40
2018-05-02T01:04:05.961Z,85.40
2018-05-02T01:06:39.178Z,85.10
2018-05-02T01:09:05.447Z,85.10
2018-05-02T01:11:32.141Z,85.30
2018-05-02T01:13:58.131Z,85.10
2018-05-02T01:16:24.844Z,85.80
2018-05-02T01:18:50.858Z,85.70
2018-05-02T01:21:17.416Z,85.70
2018-05-02T01:23:43.380Z,85.80
2018-05-02T01:26:09.340Z,85.80
2018-05-02T01:28:36.079Z,85.80
2018-05-02T01:31:02.775Z,85.80
2018-05-02T01:33:28.738Z,85.70
2018-05-02T01:35:54.733Z,85.50
2018-05-02T01:38:21.449Z,86.20
2018-05-02T01:40:47.407Z,86.20
2018-05-02T01:43:14.135Z,86.50
2018-05-02T01:45:40.851Z,86.60
2018-05-02T01:48:06.818Z,86.60
2018-05-02T01:50:33.057Z,85.90
2018-05-02T01:52:59.034Z,86.30
2018-05-02T01:55:25.746Z,87.00
2018-05-02T01:57:51.831Z,87.00
2018-05-02T02:00:17.830Z,87.40
2018-05-02T02:02:43.802Z,87.80
2018-05-02T02:05:09.795Z,87.80
2018-05-02T02:07:35.754Z,88.20
2018-05-02T02:10:01.728Z,87.80
2018-05-02T02:12:27.842Z,87.90
2018-05-02T02:14:54.603Z,87.90
2018-05-02T02:17:20.598Z,87.90
2018-05-02T02:19:46.565Z,88.00
2018-05-02T02:22:13.426Z,87.90
2018-05-02T02:24:40.109Z,88.40
2018-05-02T02:27:06.261Z,88.40
2018-05-02T02:29:32.225Z,88.60
2018-05-02T02:31:58.183Z,88.90
2018-05-02T02:34:24.954Z,89.20
2018-05-02T02:36:50.979Z,89.20
2018-05-02T02:39:16.939Z,89.30
2018-05-02T02:41:43.118Z,89.70
2018-05-02T02:44:09.093Z,89.60
2018-05-02T02:46:35.054Z,89.60
2018-05-02T02:49:01.209Z,90.00
2018-05-02T02:51:27.199Z,89.80
2018-05-02T02:53:53.192Z,89.80
2018-05-02T02:56:19.159Z,89.70
2018-05-02T02:58:46.149Z,90.00
2018-05-02T03:01:12.390Z,90.00
2018-05-02T03:03:38.392Z,90.00
2018-05-02T03:06:05.101Z,89.80
2018-05-02T03:08:31.072Z,89.70
2018-05-02T03:10:57.799Z,89.80
2018-05-02T03:13:23.828Z,89.80
2018-05-02T03:15:49.832Z,89.60
2018-05-02T03:18:15.940Z,90.00
2018-05-02T03:20:41.812Z,90.00
2018-05-02T03:23:07.804Z,90.10
2018-05-02T03:25:34.553Z,90.20
2018-05-02T03:28:00.511Z,90.20
2018-05-02T03:30:26.481Z,90.30
2018-05-02T03:32:52.962Z,90.40
2018-05-02T03:35:18.925Z,90.50
2018-05-02T03:37:44.906Z,90.50
2018-05-02T03:40:10.894Z,90.60
2018-05-02T03:42:37.774Z,90.80
2018-05-02T03:45:03.739Z,90.70
2018-05-02T03:47:29.888Z,90.70
2018-05-02T03:49:55.875Z,90.70
2018-05-02T03:52:21.913Z,90.60
2018-05-02T03:54:47.888Z,90.80
2018-05-02T03:57:13.834Z,90.70
2018-05-02T03:59:52.356Z,90.60
2018-05-02T04:05:31.121Z,90.60
2018-05-02T04:07:57.346Z,90.60
2018-05-02T04:10:23.364Z,90.40
2018-05-02T04:12:49.363Z,90.20
2018-05-02T04:15:15.549Z,90.20
2018-05-02T04:17:41.502Z,90.40
2018-05-02T04:20:07.939Z,90.30
2018-05-02T04:22:33.901Z,90.60
2018-05-02T04:25:00.130Z,90.70
2018-05-02T04:27:26.273Z,90.70
2018-05-02T04:29:52.273Z,90.60
2018-05-02T04:32:18.234Z,90.60
2018-05-02T04:34:44.210Z,90.30
2018-05-02T04:37:10.906Z,89.10
2018-05-02T04:39:36.866Z,88.60
2018-05-02T04:42:02.888Z,88.50
2018-05-02T04:44:28.855Z,88.40
2018-05-02T04:46:54.850Z,87.50
2018-05-02T04:49:20.864Z,87.00
2018-05-02T04:51:46.827Z,86.40
2018-05-02T04:54:12.777Z,85.80
2018-05-02T04:56:38.784Z,84.90
2018-05-02T04:59:04.738Z,84.60
2018-05-02T05:01:30.694Z,84.00
2018-05-02T05:03:56.697Z,83.90
2018-05-02T05:06:22.738Z,83.60
2018-05-02T05:08:48.834Z,83.50
2018-05-02T05:11:15.574Z,82.10
2018-05-02T05:13:41.534Z,82.10
2018-05-02T05:16:07.500Z,81.00
2018-05-02T05:18:33.498Z,80.20
2018-05-02T05:21:00.200Z,78.40
2018-05-02T05:23:26.220Z,78.40
2018-05-02T05:25:52.232Z,77.50
2018-05-02T05:28:18.282Z,77.20
2018-05-02T05:30:44.178Z,76.60
2018-05-02T05:33:10.922Z,76.10
2018-05-02T05:35:36.876Z,75.90
2018-05-02T05:38:03.597Z,75.80
2018-05-02T05:40:30.342Z,75.90
2018-05-02T05:42:56.338Z,75.90
2018-05-02T05:45:22.425Z,74.60
2018-05-02T05:47:48.434Z,74.60
2018-05-02T05:50:14.390Z,73.70
2018-05-02T05:52:40.360Z,73.10
2018-05-02T05:55:07.277Z,71.20
2018-05-02T05:57:33.254Z,71.10
2018-05-02T05:59:59.963Z,71.20
2018-05-02T06:02:26.113Z,71.10
2018-05-02T06:04:52.122Z,69.80
2018-05-02T06:07:18.084Z,65.70
2018-05-02T06:09:45.748Z,54.30
2018-05-02T06:12:11.709Z,54.20
2018-05-02T06:14:37.685Z,49.50
2018-05-02T06:17:10.641Z,44.40
2018-05-02T06:19:36.620Z,38.80
2018-05-02T06:22:02.609Z,35.20
2018-05-02T06:24:28.597Z,31.60
2018-05-02T06:26:54.608Z,30.80
2018-05-02T06:29:21.367Z,29.40
2018-05-02T06:31:47.455Z,28.90
2018-05-02T06:34:14.086Z,26.00
2018-05-02T06:36:40.053Z,25.80
2018-05-02T06:39:06.082Z,25.40
2018-05-02T06:41:32.791Z,26.50
2018-05-02T06:43:58.771Z,26.50
2018-05-02T06:46:24.810Z,26.30
2018-05-02T06:48:50.799Z,25.60
2018-05-02T06:51:16.767Z,26.30
2018-05-02T06:53:42.742Z,24.70
2018-05-02T06:56:09.454Z,24.10
2018-05-02T06:58:42.579Z,24.10
2018-05-02T07:01:08.546Z,24.60
2018-05-02T07:03:34.518Z,24.80
2018-05-02T07:06:00.528Z,24.60
2018-05-02T07:08:33.502Z,24.10
2018-05-02T07:11:00.209Z,22.20
2018-05-02T07:13:26.200Z,22.20
2018-05-02T07:15:52.963Z,22.70
2018-05-02T07:18:18.941Z,22.60
2018-05-02T07:20:44.917Z,22.80
2018-05-02T07:23:11.626Z,23.10
2018-05-02T07:25:37.625Z,23.60
2018-05-02T07:28:03.644Z,24.00
2018-05-02T07:30:30.358Z,23.00
2018-05-02T07:32:56.654Z,22.90
2018-05-02T07:35:22.513Z,22.80
2018-05-02T07:37:48.473Z,22.90
2018-05-02T07:40:14.814Z,23.30
2018-05-02T07:42:40.806Z,23.80
2018-05-02T07:45:06.771Z,22.90
2018-05-02T07:47:32.754Z,24.50
2018-05-02T07:49:59.482Z,25.70
2018-05-02T07:52:25.499Z,25.60
2018-05-02T07:54:51.526Z,26.10
2018-05-02T07:57:17.497Z,26.00
2018-05-02T07:59:43.485Z,26.50
2018-05-02T08:02:09.672Z,25.80
2018-05-02T08:04:35.634Z,25.70
2018-05-02T08:07:02.342Z,27.50
2018-05-02T08:09:28.307Z,27.40
2018-05-02T08:11:55.031Z,27.90
2018-05-02T08:14:21.044Z,27.70
2018-05-02T08:16:47.041Z,28.60
2018-05-02T08:19:13.748Z,28.00
2018-05-02T08:21:39.710Z,28.00
2018-05-02T08:24:05.848Z,26.90
2018-05-02T08:26:31.797Z,27.50
2018-05-02T08:28:58.777Z,27.80
2018-05-02T08:31:24.973Z,27.70
2018-05-02T08:33:50.970Z,27.40
2018-05-02T08:36:16.930Z,26.20
2018-05-02T08:38:42.889Z,27.20
2018-05-02T08:41:08.865Z,27.70
2018-05-02T08:43:34.821Z,27.50
2018-05-02T08:46:00.891Z,28.30
2018-05-02T08:48:26.860Z,26.60
2018-05-02T08:50:53.629Z,26.80
2018-05-02T08:53:19.645Z,26.80
2018-05-02T08:55:46.357Z,26.40
2018-05-02T08:58:12.321Z,25.90
2018-05-02T09:00:39.088Z,26.20
2018-05-02T09:03:05.794Z,25.80
2018-05-02T09:05:31.754Z,26.30
2018-05-02T09:07:57.782Z,26.50
2018-05-02T09:10:23.768Z,26.80
2018-05-02T09:12:49.846Z,27.10
2018-05-02T09:15:15.806Z,26.20
2018-05-02T09:17:41.766Z,26.80
2018-05-02T09:20:07.730Z,27.80
2018-05-02T09:22:33.734Z,27.10
2018-05-02T09:24:59.728Z,26.90
2018-05-02T09:27:25.763Z,26.70
2018-05-02T09:29:51.987Z,26.20
2018-05-02T09:32:18.210Z,26.50
2018-05-02T09:34:44.185Z,27.00
2018-05-02T09:37:10.274Z,28.10
2018-05-02T09:39:36.221Z,28.70
2018-05-02T09:42:02.188Z,29.90
2018-05-02T09:44:28.318Z,29.20
2018-05-02T09:46:54.311Z,28.90
2018-05-02T09:49:20.315Z,28.40
2018-05-02T09:51:47.322Z,29.20
2018-05-02T09:54:13.283Z,29.10
2018-05-02T09:56:39.261Z,29.10
2018-05-02T09:59:06.112Z,29.20
2018-05-02T10:01:32.818Z,29.90
2018-05-02T10:03:58.785Z,29.80
2018-05-02T10:06:25.086Z,29.90
2018-05-02T10:08:51.117Z,29.90
2018-05-02T10:11:17.078Z,30.00
2018-05-02T10:13:43.104Z,29.80
2018-05-02T10:16:09.065Z,30.90
2018-05-02T10:18:35.165Z,30.60
2018-05-02T10:21:01.751Z,28.30
2018-05-02T10:23:27.698Z,28.30
2018-05-02T10:25:54.460Z,28.80
2018-05-02T10:28:21.229Z,28.50
2018-05-02T10:30:47.196Z,28.50
2018-05-02T10:33:13.154Z,29.70
2018-05-02T10:35:39.118Z,29.30
2018-05-02T10:38:06.710Z,29.60
2018-05-02T10:40:32.665Z,29.40
2018-05-02T10:42:58.671Z,28.60
2018-05-02T10:45:25.401Z,28.60
2018-05-02T10:47:51.393Z,28.60
2018-05-02T10:50:17.360Z,29.40
2018-05-02T10:52:43.313Z,29.50
2018-05-02T10:55:10.004Z,29.10
2018-05-02T10:57:35.970Z,29.00
2018-05-02T11:00:01.943Z,28.70
2018-05-02T11:02:28.710Z,28.60
2018-05-02T11:04:54.754Z,28.60
2018-05-02T11:07:20.846Z,29.00
2018-05-02T11:09:46.820Z,28.60
2018-05-02T11:12:13.016Z,29.50
2018-05-02T11:14:38.992Z,29.60
2018-05-02T11:17:05.713Z,29.70
2018-05-02T11:19:31.791Z,29.70
2018-05-02T11:21:57.942Z,30.00
2018-05-02T11:24:23.941Z,30.20
2018-05-02T11:26:50.755Z,29.90
2018-05-02T11:29:16.725Z,29.80
2018-05-02T11:31:42.685Z,29.90
2018-05-02T11:34:09.394Z,30.00
2018-05-02T11:36:35.364Z,30.10
2018-05-02T11:39:02.182Z,29.80
2018-05-02T11:41:28.176Z,29.80
2018-05-02T11:43:54.189Z,30.00
2018-05-02T11:46:20.260Z,29.40
2018-05-02T11:48:47.047Z,29.80
2018-05-02T11:51:12.994Z,29.80
2018-05-02T11:53:38.950Z,29.80
2018-05-02T11:56:05.770Z,29.00
2018-05-02T11:58:31.782Z,29.00
2018-05-02T12:00:57.747Z,28.60
2018-05-02T12:03:23.777Z,28.00
2018-05-02T12:05:49.755Z,27.90
2018-05-02T12:08:16.454Z,28.70
2018-05-02T12:10:42.425Z,28.60
2018-05-02T12:13:08.457Z,29.30
2018-05-02T12:15:34.422Z,29.90
2018-05-02T12:18:00.606Z,28.90
2018-05-02T12:20:26.595Z,28.60
2018-05-02T12:22:53.338Z,29.60
2018-05-02T12:25:19.344Z,29.60
2018-05-02T12:27:45.379Z,29.50
2018-05-02T12:30:12.010Z,29.30
2018-05-02T12:32:37.985Z,29.20
2018-05-02T12:35:04.279Z,28.00
2018-05-02T12:37:30.246Z,27.60
2018-05-02T12:39:56.286Z,28.00
2018-05-02T12:42:23.007Z,28.20
2018-05-02T12:44:48.962Z,28.30
2018-05-02T12:47:14.942Z,28.30
2018-05-02T12:49:41.657Z,28.60
2018-05-02T12:52:07.605Z,28.70
2018-05-02T12:54:33.914Z,28.20
2018-05-02T12:56:59.890Z,27.50
2018-05-02T12:59:25.939Z,27.60
2018-05-02T13:01:52.895Z,27.90
2018-05-02T13:04:19.615Z,27.20
2018-05-02T13:06:45.582Z,27.10
2018-05-02T13:09:12.297Z,27.00
2018-05-02T13:11:38.388Z,27.00
2018-05-02T13:14:04.382Z,27.50
2018-05-02T13:16:30.384Z,27.90
2018-05-02T13:18:56.386Z,28.00
2018-05-02T13:21:22.455Z,27.40
2018-05-02T13:23:48.726Z,27.10
2018-05-02T13:26:14.682Z,27.90
2018-05-02T13:28:41.386Z,28.00
2018-05-02T13:31:07.498Z,28.00
2018-05-02T13:33:33.457Z,27.30
2018-05-02T13:35:59.434Z,26.90
2018-05-02T13:38:25.461Z,26.70
2018-05-02T13:40:51.472Z,26.50
2018-05-02T13:43:17.438Z,26.40
2018-05-02T13:45:43.424Z,26.90
2018-05-02T13:48:09.400Z,26.70
2018-05-02T13:50:35.378Z,28.00
2018-05-02T13:53:02.103Z,27.90
2018-05-02T13:55:28.078Z,27.90
2018-05-02T13:57:54.128Z,28.60
2018-05-02T14:00:20.158Z,28.20
2018-05-02T14:02:46.126Z,27.90
2018-05-02T14:05:12.105Z,28.00
2018-05-02T14:07:39.129Z,28.30
2018-05-02T14:10:05.090Z,28.30
2018-05-02T14:12:31.841Z,28.00
2018-05-02T14:14:58.561Z,28.50
2018-05-02T14:17:24.576Z,28.50
2018-05-02T14:19:50.629Z,28.60
2018-05-02T14:22:16.623Z,29.10
2018-05-02T14:24:42.646Z,29.10
2018-05-02T14:27:08.537Z,29.30
2018-05-02T14:29:34.559Z,28.70
2018-05-02T14:32:00.525Z,28.40
2018-05-02T14:34:26.521Z,28.70
2018-05-02T14:36:52.583Z,28.80
2018-05-02T14:39:19.291Z,28.30
2018-05-02T14:41:45.244Z,28.20
2018-05-02T14:44:11.237Z,28.50
2018-05-02T14:46:37.637Z,27.60
2018-05-02T14:49:03.607Z,27.50
2018-05-02T14:51:29.914Z,28.30
2018-05-02T14:53:55.925Z,28.20
2018-05-02T14:56:21.915Z,27.60
2018-05-02T14:58:47.914Z,27.70
2018-05-02T15:01:13.886Z,27.90
2018-05-02T15:03:39.856Z,28.60
2018-05-02T15:06:06.584Z,28.00
2018-05-02T15:08:32.555Z,28.10
2018-05-02T15:10:58.537Z,27.70
2018-05-02T15:13:24.679Z,28.10
2018-05-02T15:15:50.696Z,28.40
2018-05-02T15:18:16.691Z,28.40
2018-05-02T15:20:43.527Z,28.70
2018-05-02T15:23:09.487Z,28.60
2018-05-02T15:25:35.461Z,28.80
2018-05-02T15:28:01.587Z,28.60
2018-05-02T15:30:27.562Z,28.40
2018-05-02T15:32:53.651Z,28.60
2018-05-02T15:35:19.663Z,28.90
2018-05-02T15:37:45.666Z,29.50
2018-05-02T15:40:11.659Z,30.00
2018-05-02T15:42:37.813Z,29.80
2018-05-02T15:45:03.783Z,29.40
2018-05-02T15:47:29.768Z,29.60
2018-05-02T15:49:55.834Z,29.70
2018-05-02T15:52:21.875Z,28.90
2018-05-02T15:54:47.834Z,29.00
2018-05-02T15:57:13.826Z,29.30
2018-05-02T15:59:39.798Z,29.30
2018-05-02T16:02:07.245Z,29.50
2018-05-02T16:04:33.493Z,29.50
2018-05-02T16:06:59.476Z,29.80
2018-05-02T16:09:26.388Z,29.70
2018-05-02T16:11:52.491Z,29.70
2018-05-02T16:14:18.513Z,30.00
2018-05-02T16:16:44.493Z,29.90
2018-05-02T16:19:10.483Z,30.00
2018-05-02T16:21:36.443Z,30.00
2018-05-02T16:24:02.429Z,30.20
2018-05-02T16:26:28.427Z,30.10
2018-05-02T16:28:54.608Z,30.00
2018-05-02T16:31:21.389Z,30.30
2018-05-02T16:33:47.386Z,30.20
2018-05-02T16:36:13.351Z,30.30
2018-05-02T16:38:39.354Z,30.60
2018-05-02T16:41:05.358Z,30.70
2018-05-02T16:43:31.323Z,31.10
2018-05-02T16:45:57.314Z,31.00
2018-05-02T16:48:23.535Z,31.30
2018-05-02T16:50:49.499Z,31.40
2018-05-02T16:53:15.455Z,31.80
2018-05-02T16:55:41.771Z,32.00
2018-05-02T16:58:07.730Z,32.30
2018-05-02T17:00:33.690Z,31.80
2018-05-02T17:02:59.666Z,31.50
2018-05-02T17:05:25.670Z,31.60
2018-05-02T17:07:51.691Z,31.80
2018-05-02T17:10:17.881Z,32.10
2018-05-02T17:12:43.841Z,32.50
2018-05-02T17:15:09.797Z,32.00
2018-05-02T17:17:35.765Z,32.50
2018-05-02T17:20:02.469Z,32.20
2018-05-02T17:22:28.591Z,32.20
2018-05-02T17:24:54.780Z,32.80
2018-05-02T17:27:21.716Z,32.50
2018-05-02T17:29:47.744Z,32.40
2018-05-02T17:32:13.890Z,32.10
2018-05-02T17:34:39.857Z,32.30
2018-05-02T17:37:06.558Z,33.10
2018-05-02T17:39:32.718Z,33.00
2018-05-02T17:41:58.687Z,33.40
2018-05-02T17:44:25.459Z,36.70
2018-05-02T17:46:51.570Z,36.60
2018-05-02T17:49:18.273Z,41.10
2018-05-02T17:51:44.253Z,41.10
2018-05-02T17:54:10.965Z,42.40
2018-05-02T17:56:36.941Z,42.80
2018-05-02T17:59:02.914Z,43.90
2018-05-02T18:01:28.922Z,44.90
2018-05-02T18:03:55.715Z,45.90
2018-05-02T18:06:21.735Z,45.90
2018-05-02T18:08:47.720Z,46.20
2018-05-02T18:11:13.806Z,47.00
2018-05-02T18:13:39.770Z,48.50
2018-05-02T18:16:05.802Z,49.70
2018-05-02T18:18:31.750Z,51.40
2018-05-02T18:20:57.719Z,50.90
2018-05-02T18:23:23.726Z,52.20
2018-05-02T18:25:49.692Z,53.50
2018-05-02T18:28:16.413Z,54.40
2018-05-02T18:30:42.667Z,54.30
2018-05-02T18:33:08.621Z,54.50
2018-05-02T18:35:35.007Z,55.00
2018-05-02T18:38:00.981Z,55.30
2018-05-02T18:40:27.034Z,55.90
2018-05-02T18:42:53.601Z,55.60
2018-05-02T18:45:19.599Z,55.50
2018-05-02T18:47:45.562Z,55.60
2018-05-02T18:50:12.257Z,56.10
2018-05-02T18:52:38.417Z,56.00
2018-05-02T18:55:04.422Z,57.30
2018-05-02T18:57:30.486Z,57.70
2018-05-02T18:59:56.623Z,58.00
2018-05-02T19:02:22.683Z,58.50
2018-05-02T19:04:48.653Z,59.30
2018-05-02T19:07:14.641Z,59.40
2018-05-02T19:09:40.611Z,59.90
2018-05-02T19:12:07.344Z,60.60
2018-05-02T19:14:33.330Z,60.50
2018-05-02T19:16:59.305Z,60.80
2018-05-02T19:22:28.439Z,59.70
2018-05-02T19:25:00.663Z,59.40
2018-05-02T19:27:27.407Z,61.80
2018-05-02T19:29:53.399Z,61.80
2018-05-02T19:32:25.624Z,62.70
2018-05-02T19:34:51.604Z,63.40
2018-05-02T19:37:17.570Z,63.90
2018-05-02T19:39:49.658Z,63.20
2018-05-02T19:42:21.735Z,62.30
2018-05-02T19:44:47.705Z,61.90
2018-05-02T19:47:14.637Z,61.00
2018-05-02T19:49:40.609Z,61.00
2018-05-02T19:52:12.634Z,60.50
2018-05-02T19:54:38.878Z,61.00
2018-05-02T19:57:05.658Z,58.80
2018-05-02T19:59:31.568Z,58.90
2018-05-02T20:05:01.257Z,58.60
2018-05-02T20:07:34.210Z,58.40
2018-05-02T20:10:06.389Z,58.40
2018-05-02T20:15:32.520Z,58.30
2018-05-02T20:17:59.319Z,57.90
2018-05-02T20:20:25.331Z,57.90
2018-05-02T20:22:52.205Z,58.20
2018-05-02T20:25:18.310Z,58.70
2018-05-02T20:27:44.189Z,58.80
2018-05-02T20:30:10.191Z,58.00
2018-05-02T20:32:36.192Z,58.00
2018-05-02T20:35:03.648Z,59.10
2018-05-02T20:37:29.619Z,59.00
2018-05-02T20:39:56.379Z,58.00
2018-05-02T20:42:22.353Z,57.80
2018-05-02T20:44:48.319Z,57.90
2018-05-02T20:47:14.286Z,58.10
2018-05-02T20:49:40.253Z,59.10
2018-05-02T20:52:06.232Z,59.00
2018-05-02T20:54:32.211Z,59.10
2018-05-02T20:56:58.916Z,59.20
2018-05-02T20:59:24.936Z,59.10
2018-05-02T21:01:51.019Z,58.10
2018-05-02T21:04:17.000Z,57.40
2018-05-02T21:06:42.956Z,57.30
2018-05-02T21:09:08.925Z,56.90
2018-05-02T21:11:35.702Z,57.30
2018-05-02T21:14:01.673Z,57.20
2018-05-02T21:16:27.680Z,58.00
2018-05-02T21:18:53.686Z,59.10
2018-05-02T21:21:22.284Z,58.70
2018-05-02T21:23:48.366Z,58.70
2018-05-02T21:26:14.345Z,59.10
2018-05-02T21:28:40.319Z,59.20
2018-05-02T21:31:06.332Z,58.40
2018-05-02T21:33:33.026Z,58.00
2018-05-02T21:35:59.012Z,58.00
2018-05-02T21:38:25.775Z,56.90
2018-05-02T21:40:52.501Z,58.10
2018-05-02T21:43:19.217Z,58.20
2018-05-02T21:45:45.216Z,58.10
2018-05-02T21:48:11.929Z,58.20
2018-05-02T21:50:37.938Z,58.20
2018-05-02T21:53:03.936Z,57.30
2018-05-02T21:55:37.707Z,58.90
2018-05-02T21:58:03.689Z,58.90
2018-05-02T22:00:30.402Z,59.10
2018-05-02T22:02:56.508Z,59.10
2018-05-02T22:05:22.730Z,59.10
2018-05-02T22:07:49.419Z,60.20
2018-05-02T22:10:15.382Z,60.10
2018-05-02T22:12:41.385Z,60.30
2018-05-02T22:15:07.330Z,60.40
2018-05-02T22:17:33.287Z,60.90
2018-05-02T22:19:59.270Z,61.30
2018-05-02T22:22:25.337Z,61.10
2018-05-02T22:24:51.335Z,61.60
2018-05-02T22:27:18.082Z,61.60
2018-05-02T22:29:44.785Z,61.80
2018-05-02T22:32:10.742Z,61.70
2018-05-02T22:34:38.216Z,62.30
2018-05-02T22:37:05.672Z,63.00
2018-05-02T22:39:31.626Z,63.60
2018-05-02T22:41:57.639Z,63.30
2018-05-02T22:44:23.638Z,63.30
2018-05-02T22:46:49.594Z,63.60
2018-05-02T22:49:15.577Z,63.90
2018-05-02T22:51:41.531Z,64.00
2018-05-02T22:54:08.230Z,64.70
2018-05-02T22:56:34.215Z,64.50
2018-05-02T22:59:00.913Z,65.60
2018-05-02T23:01:26.930Z,65.60
2018-05-02T23:03:52.934Z,64.70
2018-05-02T23:06:19.629Z,65.40
2018-05-02T23:08:45.613Z,65.40
2018-05-02T23:11:12.325Z,65.70
2018-05-02T23:13:38.285Z,65.50
2018-05-02T23:16:04.266Z,65.50
2018-05-02T23:18:30.350Z,65.50
2018-05-02T23:20:56.340Z,66.00
2018-05-02T23:23:22.303Z,66.00
2018-05-02T23:25:48.962Z,65.70
2018-05-02T23:28:14.918Z,66.60
2018-05-02T23:30:40.885Z,67.70
2018-05-02T23:33:07.605Z,68.30
2018-05-02T23:35:33.598Z,68.30
2018-05-02T23:37:59.550Z,68.20
2018-05-02T23:40:25.550Z,68.40
2018-05-02T23:42:51.594Z,68.70
2018-05-02T23:45:17.560Z,68.00
2018-05-02T23:47:43.535Z,68.80
2018-05-02T23:50:10.227Z,68.30
2018-05-02T23:52:36.430Z,68.20
2018-05-02T23:55:03.345Z,68.50
2018-05-02T23:57:29.309Z,68.40
2018-05-02T23:59:55.282Z,68.40
